sensor_id;sensor_type;location;lat;lon;timestamp;P1;durP1;ratioP1;P2;durP2;ratioP2
77026;SDS011;65956;52.986;17.490;2024-01-10T00:01:17;98.40;;;34.20;;
77026;SDS011;65956;52.986;17.490;2024-01-10T00:04:53;87.40;;;32.20;;
77026;SDS011;65956;52.986;17.490;2024-01-10T00:08:23;79.00;;;29.50;;
77026;SDS011;65956;52.986;17.490;2024-01-10T00:12:02;73.90;;;27.20;;
77026;SDS011;65956;52.986;17.490;2024-01-10T00:16:14;91.10;;;33.40;;
77026;SDS011;65956;52.986;17.490;2024-01-10T00:22:29;63.90;;;25.30;;
77026;SDS011;65956;52.986;17.490;2024-01-10T00:24:59;71.20;;;26.90;;
77026;SDS011;65956;52.986;17.490;2024-01-10T00:34:34;78.70;;;32.80;;
77026;SDS011;65956;52.986;17.490;2024-01-10T00:38:13;58.40;;;23.60;;
77026;SDS011;65956;52.986;17.490;2024-01-10T00:41:42;69.90;;;25.60;;
77026;SDS011;65956;52.986;17.490;2024-01-10T00:44:30;64.50;;;24.20;;
77026;SDS011;65956;52.986;17.490;2024-01-10T00:47:32;75.10;;;29.00;;
77026;SDS011;65956;52.986;17.490;2024-01-10T00:50:51;73.40;;;28.40;;
77026;SDS011;65956;52.986;17.490;2024-01-10T00:54:19;70.90;;;27.60;;
77026;SDS011;65956;52.986;17.490;2024-01-10T00:57:28;75.70;;;28.10;;
77026;SDS011;65956;52.986;17.490;2024-01-10T01:01:24;59.80;;;20.90;;
77026;SDS011;65956;52.986;17.490;2024-01-10T01:04:06;65.50;;;26.00;;
77026;SDS011;65956;52.986;17.490;2024-01-10T01:06:52;74.50;;;30.40;;
77026;SDS011;65956;52.986;17.490;2024-01-10T01:09:41;74.90;;;29.80;;
77026;SDS011;65956;52.986;17.490;2024-01-10T01:12:54;84.20;;;31.90;;
77026;SDS011;65956;52.986;17.490;2024-01-10T01:16:22;78.80;;;31.50;;
77026;SDS011;65956;52.986;17.490;2024-01-10T01:19:59;87.70;;;31.90;;
77026;SDS011;65956;52.986;17.490;2024-01-10T01:22:27;82.00;;;31.30;;
77026;SDS011;65956;52.986;17.490;2024-01-10T01:28:53;77.80;;;29.00;;
77026;SDS011;65956;52.986;17.490;2024-01-10T01:32:10;72.50;;;28.10;;
77026;SDS011;65956;52.986;17.490;2024-01-10T01:35:05;77.20;;;30.50;;
77026;SDS011;65956;52.986;17.490;2024-01-10T01:37:40;79.10;;;28.90;;
77026;SDS011;65956;52.986;17.490;2024-01-10T01:40:48;74.10;;;29.40;;
77026;SDS011;65956;52.986;17.490;2024-01-10T01:43:27;81.00;;;29.60;;
77026;SDS011;65956;52.986;17.490;2024-01-10T01:46:20;84.20;;;28.40;;
77026;SDS011;65956;52.986;17.490;2024-01-10T01:49:10;78.50;;;29.20;;
77026;SDS011;65956;52.986;17.490;2024-01-10T01:52:08;90.40;;;30.10;;
77026;SDS011;65956;52.986;17.490;2024-01-10T01:54:41;73.50;;;28.10;;
77026;SDS011;65956;52.986;17.490;2024-01-10T01:57:15;70.50;;;26.20;;
77026;SDS011;65956;52.986;17.490;2024-01-10T01:59:51;59.80;;;24.40;;
77026;SDS011;65956;52.986;17.490;2024-01-10T02:03:28;51.60;;;21.80;;
77026;SDS011;65956;52.986;17.490;2024-01-10T02:06:50;38.90;;;15.90;;
77026;SDS011;65956;52.986;17.490;2024-01-10T02:10:24;54.20;;;23.50;;
77026;SDS011;65956;52.986;17.490;2024-01-10T02:13:34;59.70;;;23.10;;
77026;SDS011;65956;52.986;17.490;2024-01-10T02:16:21;61.30;;;25.40;;
77026;SDS011;65956;52.986;17.490;2024-01-10T02:19:03;55.40;;;24.40;;
77026;SDS011;65956;52.986;17.490;2024-01-10T02:25:45;46.20;;;20.10;;
77026;SDS011;65956;52.986;17.490;2024-01-10T02:29:01;54.00;;;22.30;;
77026;SDS011;65956;52.986;17.490;2024-01-10T02:32:25;56.10;;;21.80;;
77026;SDS011;65956;52.986;17.490;2024-01-10T02:35:29;45.70;;;18.10;;
77026;SDS011;65956;52.986;17.490;2024-01-10T02:38:51;50.90;;;20.20;;
77026;SDS011;65956;52.986;17.490;2024-01-10T02:42:21;50.10;;;18.60;;
77026;SDS011;65956;52.986;17.490;2024-01-10T02:45:04;58.30;;;23.00;;
77026;SDS011;65956;52.986;17.490;2024-01-10T02:48:33;55.20;;;22.00;;
77026;SDS011;65956;52.986;17.490;2024-01-10T02:51:44;60.10;;;24.80;;
77026;SDS011;65956;52.986;17.490;2024-01-10T02:57:52;55.90;;;25.90;;
77026;SDS011;65956;52.986;17.490;2024-01-10T03:04:54;70.50;;;24.60;;
77026;SDS011;65956;52.986;17.490;2024-01-10T04:08:53;54.90;;;22.70;;
77026;SDS011;65956;52.986;17.490;2024-01-10T04:11:20;54.70;;;22.00;;
77026;SDS011;65956;52.986;17.490;2024-01-10T04:13:46;58.70;;;24.70;;
77026;SDS011;65956;52.986;17.490;2024-01-10T04:16:12;55.80;;;21.80;;
77026;SDS011;65956;52.986;17.490;2024-01-10T04:18:38;61.30;;;26.50;;
77026;SDS011;65956;52.986;17.490;2024-01-10T04:21:05;56.60;;;25.30;;
77026;SDS011;65956;52.986;17.490;2024-01-10T04:23:31;50.70;;;21.10;;
77026;SDS011;65956;52.986;17.490;2024-01-10T04:25:59;59.10;;;22.80;;
77026;SDS011;65956;52.986;17.490;2024-01-10T04:28:28;59.90;;;23.80;;
77026;SDS011;65956;52.986;17.490;2024-01-10T04:30:54;56.30;;;22.90;;
77026;SDS011;65956;52.986;17.490;2024-01-10T04:33:20;60.50;;;23.90;;
77026;SDS011;65956;52.986;17.490;2024-01-10T04:35:47;49.60;;;22.30;;
77026;SDS011;65956;52.986;17.490;2024-01-10T04:38:13;57.50;;;24.20;;
77026;SDS011;65956;52.986;17.490;2024-01-10T04:40:39;55.30;;;23.60;;
77026;SDS011;65956;52.986;17.490;2024-01-10T04:43:05;58.90;;;24.70;;
77026;SDS011;65956;52.986;17.490;2024-01-10T04:45:31;47.70;;;19.70;;
77026;SDS011;65956;52.986;17.490;2024-01-10T04:47:57;52.80;;;22.40;;
77026;SDS011;65956;52.986;17.490;2024-01-10T04:50:23;53.50;;;22.20;;
77026;SDS011;65956;52.986;17.490;2024-01-10T04:52:49;53.90;;;22.30;;
77026;SDS011;65956;52.986;17.490;2024-01-10T04:55:15;49.10;;;21.70;;
77026;SDS011;65956;52.986;17.490;2024-01-10T04:57:42;56.90;;;23.40;;
77026;SDS011;65956;52.986;17.490;2024-01-10T05:00:08;55.90;;;22.70;;
77026;SDS011;65956;52.986;17.490;2024-01-10T05:02:34;56.10;;;24.70;;
77026;SDS011;65956;52.986;17.490;2024-01-10T05:05:00;62.70;;;25.50;;
77026;SDS011;65956;52.986;17.490;2024-01-10T05:07:27;56.10;;;27.90;;
77026;SDS011;65956;52.986;17.490;2024-01-10T05:09:53;61.70;;;24.90;;
77026;SDS011;65956;52.986;17.490;2024-01-10T05:12:19;64.10;;;25.20;;
77026;SDS011;65956;52.986;17.490;2024-01-10T05:14:45;53.80;;;22.90;;
77026;SDS011;65956;52.986;17.490;2024-01-10T05:17:11;60.30;;;24.20;;
77026;SDS011;65956;52.986;17.490;2024-01-10T05:19:37;53.10;;;22.40;;
77026;SDS011;65956;52.986;17.490;2024-01-10T05:22:04;54.60;;;22.10;;
77026;SDS011;65956;52.986;17.490;2024-01-10T05:24:30;53.80;;;21.80;;
77026;SDS011;65956;52.986;17.490;2024-01-10T05:26:56;54.00;;;24.00;;
77026;SDS011;65956;52.986;17.490;2024-01-10T05:29:23;58.70;;;24.70;;
77026;SDS011;65956;52.986;17.490;2024-01-10T05:31:50;55.40;;;23.70;;
77026;SDS011;65956;52.986;17.490;2024-01-10T05:34:16;51.90;;;21.70;;
77026;SDS011;65956;52.986;17.490;2024-01-10T05:36:42;39.90;;;16.60;;
77026;SDS011;65956;52.986;17.490;2024-01-10T05:39:08;53.50;;;26.30;;
77026;SDS011;65956;52.986;17.490;2024-01-10T05:41:35;63.00;;;27.50;;
77026;SDS011;65956;52.986;17.490;2024-01-10T05:44:01;56.50;;;24.40;;
77026;SDS011;65956;52.986;17.490;2024-01-10T05:46:30;55.00;;;22.10;;
77026;SDS011;65956;52.986;17.490;2024-01-10T05:48:57;59.80;;;24.30;;
77026;SDS011;65956;52.986;17.490;2024-01-10T05:51:23;54.90;;;22.30;;
77026;SDS011;65956;52.986;17.490;2024-01-10T05:53:49;57.00;;;23.10;;
77026;SDS011;65956;52.986;17.490;2024-01-10T05:56:15;56.70;;;23.40;;
77026;SDS011;65956;52.986;17.490;2024-01-10T05:58:41;59.80;;;25.10;;
77026;SDS011;65956;52.986;17.490;2024-01-10T06:01:07;56.90;;;24.70;;
77026;SDS011;65956;52.986;17.490;2024-01-10T06:03:35;51.90;;;24.50;;
77026;SDS011;65956;52.986;17.490;2024-01-10T06:06:02;57.40;;;23.60;;
77026;SDS011;65956;52.986;17.490;2024-01-10T06:08:30;55.70;;;23.60;;
77026;SDS011;65956;52.986;17.490;2024-01-10T06:10:56;50.50;;;23.10;;
77026;SDS011;65956;52.986;17.490;2024-01-10T06:13:22;53.50;;;21.90;;
77026;SDS011;65956;52.986;17.490;2024-01-10T06:15:48;51.80;;;21.50;;
77026;SDS011;65956;52.986;17.490;2024-01-10T06:18:14;49.00;;;20.40;;
77026;SDS011;65956;52.986;17.490;2024-01-10T06:20:40;49.30;;;23.10;;
77026;SDS011;65956;52.986;17.490;2024-01-10T06:23:07;62.20;;;25.70;;
77026;SDS011;65956;52.986;17.490;2024-01-10T06:25:33;61.50;;;23.90;;
77026;SDS011;65956;52.986;17.490;2024-01-10T06:27:59;52.90;;;24.50;;
77026;SDS011;65956;52.986;17.490;2024-01-10T06:30:25;59.00;;;26.40;;
77026;SDS011;65956;52.986;17.490;2024-01-10T06:32:51;57.70;;;25.80;;
77026;SDS011;65956;52.986;17.490;2024-01-10T06:35:18;57.50;;;25.70;;
77026;SDS011;65956;52.986;17.490;2024-01-10T06:37:44;55.70;;;26.60;;
77026;SDS011;65956;52.986;17.490;2024-01-10T06:40:11;54.10;;;24.50;;
77026;SDS011;65956;52.986;17.490;2024-01-10T06:42:37;54.20;;;23.40;;
77026;SDS011;65956;52.986;17.490;2024-01-10T06:45:05;56.30;;;22.60;;
77026;SDS011;65956;52.986;17.490;2024-01-10T06:47:33;48.60;;;21.90;;
77026;SDS011;65956;52.986;17.490;2024-01-10T06:49:59;67.00;;;27.40;;
77026;SDS011;65956;52.986;17.490;2024-01-10T06:52:25;71.80;;;33.90;;
77026;SDS011;65956;52.986;17.490;2024-01-10T06:54:52;58.30;;;24.50;;
77026;SDS011;65956;52.986;17.490;2024-01-10T06:57:18;52.40;;;22.20;;
77026;SDS011;65956;52.986;17.490;2024-01-10T06:59:44;57.10;;;28.10;;
77026;SDS011;65956;52.986;17.490;2024-01-10T07:02:10;58.30;;;28.00;;
77026;SDS011;65956;52.986;17.490;2024-01-10T07:04:37;43.80;;;18.30;;
77026;SDS011;65956;52.986;17.490;2024-01-10T07:07:04;90.40;;;38.20;;
77026;SDS011;65956;52.986;17.490;2024-01-10T07:09:30;78.70;;;32.90;;
77026;SDS011;65956;52.986;17.490;2024-01-10T07:11:56;226.00;;;87.10;;
77026;SDS011;65956;52.986;17.490;2024-01-10T07:14:22;84.10;;;35.30;;
77026;SDS011;65956;52.986;17.490;2024-01-10T07:16:48;73.60;;;31.80;;
77026;SDS011;65956;52.986;17.490;2024-01-10T07:19:14;55.20;;;26.10;;
77026;SDS011;65956;52.986;17.490;2024-01-10T07:21:40;58.30;;;24.90;;
77026;SDS011;65956;52.986;17.490;2024-01-10T07:24:07;49.40;;;20.90;;
77026;SDS011;65956;52.986;17.490;2024-01-10T07:26:37;84.10;;;34.30;;
77026;SDS011;65956;52.986;17.490;2024-01-10T07:29:04;50.40;;;21.50;;
77026;SDS011;65956;52.986;17.490;2024-01-10T07:31:34;61.50;;;25.30;;
77026;SDS011;65956;52.986;17.490;2024-01-10T07:34:01;67.10;;;26.80;;
77026;SDS011;65956;52.986;17.490;2024-01-10T07:36:31;48.90;;;20.80;;
77026;SDS011;65956;52.986;17.490;2024-01-10T07:39:02;52.80;;;22.50;;
77026;SDS011;65956;52.986;17.490;2024-01-10T07:41:28;50.60;;;22.00;;
77026;SDS011;65956;52.986;17.490;2024-01-10T07:43:56;58.00;;;27.00;;
77026;SDS011;65956;52.986;17.490;2024-01-10T07:46:23;50.50;;;22.10;;
77026;SDS011;65956;52.986;17.490;2024-01-10T07:48:49;63.50;;;25.50;;
77026;SDS011;65956;52.986;17.490;2024-01-10T07:51:15;51.60;;;23.90;;
77026;SDS011;65956;52.986;17.490;2024-01-10T07:53:41;49.00;;;21.50;;
77026;SDS011;65956;52.986;17.490;2024-01-10T07:56:07;57.70;;;23.00;;
77026;SDS011;65956;52.986;17.490;2024-01-10T07:58:33;53.00;;;22.30;;
77026;SDS011;65956;52.986;17.490;2024-01-10T08:00:59;54.00;;;23.70;;
77026;SDS011;65956;52.986;17.490;2024-01-10T08:03:26;71.90;;;28.80;;
77026;SDS011;65956;52.986;17.490;2024-01-10T08:05:52;63.10;;;28.20;;
77026;SDS011;65956;52.986;17.490;2024-01-10T08:08:18;75.10;;;34.70;;
77026;SDS011;65956;52.986;17.490;2024-01-10T08:10:44;179.80;;;60.60;;
77026;SDS011;65956;52.986;17.490;2024-01-10T08:13:16;193.80;;;61.80;;
77026;SDS011;65956;52.986;17.490;2024-01-10T08:15:48;98.50;;;32.90;;
77026;SDS011;65956;52.986;17.490;2024-01-10T08:18:23;64.80;;;25.10;;
77026;SDS011;65956;52.986;17.490;2024-01-10T08:20:49;215.70;;;58.00;;
77026;SDS011;65956;52.986;17.490;2024-01-10T08:23:16;102.50;;;32.20;;
77026;SDS011;65956;52.986;17.490;2024-01-10T08:25:42;364.60;;;93.50;;
77026;SDS011;65956;52.986;17.490;2024-01-10T08:28:09;239.70;;;59.20;;
77026;SDS011;65956;52.986;17.490;2024-01-10T08:30:38;440.30;;;119.00;;
77026;SDS011;65956;52.986;17.490;2024-01-10T08:33:04;285.30;;;74.30;;
77026;SDS011;65956;52.986;17.490;2024-01-10T08:35:30;114.90;;;36.00;;
77026;SDS011;65956;52.986;17.490;2024-01-10T08:37:56;222.00;;;69.90;;
77026;SDS011;65956;52.986;17.490;2024-01-10T08:40:23;158.50;;;56.30;;
77026;SDS011;65956;52.986;17.490;2024-01-10T08:42:51;52.60;;;20.60;;
77026;SDS011;65956;52.986;17.490;2024-01-10T08:45:18;85.30;;;28.10;;
77026;SDS011;65956;52.986;17.490;2024-01-10T08:47:44;118.20;;;39.80;;
77026;SDS011;65956;52.986;17.490;2024-01-10T08:50:10;86.10;;;32.90;;
77026;SDS011;65956;52.986;17.490;2024-01-10T08:52:37;89.40;;;27.10;;
77026;SDS011;65956;52.986;17.490;2024-01-10T08:55:04;57.10;;;20.80;;
77026;SDS011;65956;52.986;17.490;2024-01-10T08:57:31;97.80;;;30.80;;
77026;SDS011;65956;52.986;17.490;2024-01-10T08:59:58;28.80;;;13.40;;
77026;SDS011;65956;52.986;17.490;2024-01-10T09:02:24;31.70;;;15.80;;
77026;SDS011;65956;52.986;17.490;2024-01-10T09:04:50;38.20;;;16.60;;
77026;SDS011;65956;52.986;17.490;2024-01-10T09:07:16;53.70;;;22.80;;
77026;SDS011;65956;52.986;17.490;2024-01-10T09:09:44;33.00;;;14.90;;
77026;SDS011;65956;52.986;17.490;2024-01-10T09:12:10;88.40;;;32.20;;
77026;SDS011;65956;52.986;17.490;2024-01-10T09:14:36;42.10;;;18.60;;
77026;SDS011;65956;52.986;17.490;2024-01-10T09:17:02;54.10;;;22.40;;
77026;SDS011;65956;52.986;17.490;2024-01-10T09:19:30;33.50;;;14.60;;
77026;SDS011;65956;52.986;17.490;2024-01-10T09:21:59;22.80;;;9.50;;
77026;SDS011;65956;52.986;17.490;2024-01-10T09:24:25;24.80;;;11.20;;
77026;SDS011;65956;52.986;17.490;2024-01-10T09:26:52;29.70;;;12.00;;
77026;SDS011;65956;52.986;17.490;2024-01-10T09:29:19;23.70;;;10.60;;
77026;SDS011;65956;52.986;17.490;2024-01-10T09:31:45;22.40;;;11.20;;
77026;SDS011;65956;52.986;17.490;2024-01-10T09:34:11;28.90;;;13.90;;
77026;SDS011;65956;52.986;17.490;2024-01-10T09:36:37;53.10;;;26.60;;
77026;SDS011;65956;52.986;17.490;2024-01-10T09:39:04;24.50;;;9.40;;
77026;SDS011;65956;52.986;17.490;2024-01-10T09:41:31;22.30;;;10.80;;
77026;SDS011;65956;52.986;17.490;2024-01-10T09:44:06;22.70;;;9.50;;
77026;SDS011;65956;52.986;17.490;2024-01-10T09:46:32;19.20;;;6.60;;
77026;SDS011;65956;52.986;17.490;2024-01-10T09:49:00;28.90;;;11.00;;
77026;SDS011;65956;52.986;17.490;2024-01-10T09:51:26;33.00;;;12.50;;
77026;SDS011;65956;52.986;17.490;2024-01-10T09:53:54;21.00;;;8.70;;
77026;SDS011;65956;52.986;17.490;2024-01-10T09:56:23;31.60;;;14.00;;
77026;SDS011;65956;52.986;17.490;2024-01-10T09:58:49;25.60;;;11.60;;
77026;SDS011;65956;52.986;17.490;2024-01-10T10:01:19;23.00;;;10.60;;
77026;SDS011;65956;52.986;17.490;2024-01-10T10:03:46;19.50;;;8.20;;
77026;SDS011;65956;52.986;17.490;2024-01-10T10:06:15;44.50;;;18.30;;
77026;SDS011;65956;52.986;17.490;2024-01-10T10:08:42;61.10;;;26.00;;
77026;SDS011;65956;52.986;17.490;2024-01-10T10:11:12;51.60;;;24.60;;
77026;SDS011;65956;52.986;17.490;2024-01-10T10:13:41;44.60;;;21.60;;
77026;SDS011;65956;52.986;17.490;2024-01-10T10:16:08;41.20;;;18.20;;
77026;SDS011;65956;52.986;17.490;2024-01-10T10:18:39;34.90;;;14.70;;
77026;SDS011;65956;52.986;17.490;2024-01-10T10:21:11;49.70;;;25.20;;
77026;SDS011;65956;52.986;17.490;2024-01-10T10:23:39;57.30;;;22.00;;
77026;SDS011;65956;52.986;17.490;2024-01-10T10:26:13;52.30;;;21.00;;
77026;SDS011;65956;52.986;17.490;2024-01-10T10:28:48;54.20;;;23.60;;
77026;SDS011;65956;52.986;17.490;2024-01-10T10:31:15;50.90;;;20.30;;
77026;SDS011;65956;52.986;17.490;2024-01-10T10:33:42;64.10;;;26.30;;
77026;SDS011;65956;52.986;17.490;2024-01-10T10:36:09;42.00;;;17.20;;
77026;SDS011;65956;52.986;17.490;2024-01-10T10:38:36;42.00;;;16.50;;
77026;SDS011;65956;52.986;17.490;2024-01-10T10:41:06;36.30;;;14.40;;
77026;SDS011;65956;52.986;17.490;2024-01-10T10:43:41;36.70;;;14.60;;
77026;SDS011;65956;52.986;17.490;2024-01-10T10:46:08;40.60;;;14.30;;
77026;SDS011;65956;52.986;17.490;2024-01-10T10:48:38;93.50;;;37.60;;
77026;SDS011;65956;52.986;17.490;2024-01-10T10:54:15;50.20;;;18.50;;
77026;SDS011;65956;52.986;17.490;2024-01-10T11:03:13;50.00;;;22.80;;
77026;SDS011;65956;52.986;17.490;2024-01-10T11:05:40;33.90;;;13.90;;
77026;SDS011;65956;52.986;17.490;2024-01-10T11:08:10;36.60;;;16.40;;
77026;SDS011;65956;52.986;17.490;2024-01-10T11:10:42;36.30;;;14.40;;
77026;SDS011;65956;52.986;17.490;2024-01-10T11:24:15;36.80;;;14.80;;
77026;SDS011;65956;52.986;17.490;2024-01-10T11:26:44;30.70;;;13.40;;
77026;SDS011;65956;52.986;17.490;2024-01-10T11:29:11;22.40;;;9.00;;
77026;SDS011;65956;52.986;17.490;2024-01-10T11:31:38;30.50;;;12.30;;
77026;SDS011;65956;52.986;17.490;2024-01-10T11:34:05;28.10;;;13.80;;
77026;SDS011;65956;52.986;17.490;2024-01-10T11:36:31;28.30;;;13.50;;
77026;SDS011;65956;52.986;17.490;2024-01-10T11:38:58;36.70;;;16.30;;
77026;SDS011;65956;52.986;17.490;2024-01-10T11:41:28;30.10;;;14.30;;
77026;SDS011;65956;52.986;17.490;2024-01-10T11:46:47;27.70;;;13.00;;
77026;SDS011;65956;52.986;17.490;2024-01-10T11:49:19;29.80;;;12.60;;
77026;SDS011;65956;52.986;17.490;2024-01-10T11:51:47;27.80;;;13.60;;
77026;SDS011;65956;52.986;17.490;2024-01-10T11:57:02;37.90;;;17.10;;
77026;SDS011;65956;52.986;17.490;2024-01-10T11:59:29;28.90;;;12.80;;
77026;SDS011;65956;52.986;17.490;2024-01-10T12:01:59;23.80;;;10.50;;
77026;SDS011;65956;52.986;17.490;2024-01-10T12:04:25;23.00;;;10.20;;
77026;SDS011;65956;52.986;17.490;2024-01-10T12:06:56;38.20;;;19.20;;
77026;SDS011;65956;52.986;17.490;2024-01-10T12:09:23;36.30;;;17.10;;
77026;SDS011;65956;52.986;17.490;2024-01-10T12:11:50;50.30;;;25.10;;
77026;SDS011;65956;52.986;17.490;2024-01-10T12:14:17;32.60;;;15.90;;
77026;SDS011;65956;52.986;17.490;2024-01-10T12:16:43;35.10;;;16.20;;
77026;SDS011;65956;52.986;17.490;2024-01-10T12:19:09;33.50;;;15.60;;
77026;SDS011;65956;52.986;17.490;2024-01-10T12:21:35;28.00;;;13.80;;
77026;SDS011;65956;52.986;17.490;2024-01-10T12:24:05;27.30;;;13.00;;
77026;SDS011;65956;52.986;17.490;2024-01-10T12:26:32;29.60;;;14.60;;
77026;SDS011;65956;52.986;17.490;2024-01-10T12:28:59;43.60;;;18.00;;
77026;SDS011;65956;52.986;17.490;2024-01-10T12:31:28;28.90;;;15.20;;
77026;SDS011;65956;52.986;17.490;2024-01-10T12:33:55;25.60;;;11.90;;
77026;SDS011;65956;52.986;17.490;2024-01-10T12:36:22;29.50;;;14.60;;
77026;SDS011;65956;52.986;17.490;2024-01-10T12:38:49;27.30;;;14.50;;
77026;SDS011;65956;52.986;17.490;2024-01-10T12:41:15;33.70;;;17.10;;
77026;SDS011;65956;52.986;17.490;2024-01-10T12:43:53;30.20;;;14.40;;
77026;SDS011;65956;52.986;17.490;2024-01-10T13:01:31;27.60;;;14.20;;
77026;SDS011;65956;52.986;17.490;2024-01-10T13:07:39;172.80;;;54.10;;
77026;SDS011;65956;52.986;17.490;2024-01-10T13:10:45;235.30;;;61.60;;
77026;SDS011;65956;52.986;17.490;2024-01-10T13:14:28;98.90;;;30.60;;
77026;SDS011;65956;52.986;17.490;2024-01-10T13:17:07;192.80;;;61.50;;
77026;SDS011;65956;52.986;17.490;2024-01-10T13:19:39;56.80;;;25.60;;
77026;SDS011;65956;52.986;17.490;2024-01-10T13:22:17;30.10;;;14.90;;
77026;SDS011;65956;52.986;17.490;2024-01-10T13:24:56;28.60;;;14.70;;
77026;SDS011;65956;52.986;17.490;2024-01-10T13:27:30;56.20;;;31.60;;
77026;SDS011;65956;52.986;17.490;2024-01-10T14:09:33;51.60;;;24.40;;
77026;SDS011;65956;52.986;17.490;2024-01-10T14:12:46;65.30;;;28.20;;
77026;SDS011;65956;52.986;17.490;2024-01-10T14:16:29;47.30;;;17.70;;
77026;SDS011;65956;52.986;17.490;2024-01-10T14:19:50;40.80;;;16.50;;
77026;SDS011;65956;52.986;17.490;2024-01-10T14:22:27;71.60;;;25.10;;
77026;SDS011;65956;52.986;17.490;2024-01-10T14:25:05;189.00;;;53.80;;
77026;SDS011;65956;52.986;17.490;2024-01-10T14:27:32;73.70;;;28.80;;
77026;SDS011;65956;52.986;17.490;2024-01-10T14:30:05;95.60;;;33.10;;
77026;SDS011;65956;52.986;17.490;2024-01-10T14:32:43;77.30;;;26.50;;
77026;SDS011;65956;52.986;17.490;2024-01-10T14:35:12;30.40;;;12.20;;
77026;SDS011;65956;52.986;17.490;2024-01-10T14:37:39;53.00;;;21.20;;
77026;SDS011;65956;52.986;17.490;2024-01-10T14:40:05;64.90;;;25.90;;
77026;SDS011;65956;52.986;17.490;2024-01-10T14:42:32;39.20;;;17.60;;
77026;SDS011;65956;52.986;17.490;2024-01-10T14:45:01;34.40;;;16.70;;
77026;SDS011;65956;52.986;17.490;2024-01-10T14:47:27;39.70;;;16.20;;
77026;SDS011;65956;52.986;17.490;2024-01-10T14:49:54;105.10;;;34.60;;
77026;SDS011;65956;52.986;17.490;2024-01-10T14:52:20;53.20;;;22.40;;
77026;SDS011;65956;52.986;17.490;2024-01-10T14:54:48;238.80;;;80.90;;
77026;SDS011;65956;52.986;17.490;2024-01-10T14:57:14;280.90;;;96.60;;
77026;SDS011;65956;52.986;17.490;2024-01-10T14:59:42;534.80;;;216.80;;
77026;SDS011;65956;52.986;17.490;2024-01-10T15:02:08;447.90;;;166.30;;
77026;SDS011;65956;52.986;17.490;2024-01-10T15:04:37;373.30;;;142.10;;
77026;SDS011;65956;52.986;17.490;2024-01-10T15:07:05;262.80;;;82.60;;
77026;SDS011;65956;52.986;17.490;2024-01-10T15:09:31;205.50;;;49.80;;
77026;SDS011;65956;52.986;17.490;2024-01-10T15:11:58;116.70;;;31.70;;
77026;SDS011;65956;52.986;17.490;2024-01-10T15:14:24;145.80;;;37.60;;
77026;SDS011;65956;52.986;17.490;2024-01-10T15:16:50;124.50;;;33.50;;
77026;SDS011;65956;52.986;17.490;2024-01-10T15:19:16;115.10;;;29.30;;
77026;SDS011;65956;52.986;17.490;2024-01-10T15:21:44;121.80;;;32.10;;
77026;SDS011;65956;52.986;17.490;2024-01-10T15:24:10;120.00;;;34.20;;
77026;SDS011;65956;52.986;17.490;2024-01-10T15:26:36;92.30;;;28.00;;
77026;SDS011;65956;52.986;17.490;2024-01-10T15:29:03;71.00;;;22.20;;
77026;SDS011;65956;52.986;17.490;2024-01-10T15:31:30;130.10;;;41.50;;
77026;SDS011;65956;52.986;17.490;2024-01-10T15:33:57;217.30;;;57.20;;
77026;SDS011;65956;52.986;17.490;2024-01-10T15:36:23;138.90;;;34.30;;
77026;SDS011;65956;52.986;17.490;2024-01-10T15:38:50;279.60;;;69.20;;
77026;SDS011;65956;52.986;17.490;2024-01-10T15:41:16;190.50;;;52.50;;
77026;SDS011;65956;52.986;17.490;2024-01-10T15:43:42;142.70;;;40.40;;
77026;SDS011;65956;52.986;17.490;2024-01-10T15:46:08;158.60;;;42.70;;
77026;SDS011;65956;52.986;17.490;2024-01-10T15:48:35;76.70;;;24.60;;
77026;SDS011;65956;52.986;17.490;2024-01-10T15:51:05;75.80;;;30.60;;
77026;SDS011;65956;52.986;17.490;2024-01-10T15:53:31;28.60;;;14.00;;
77026;SDS011;65956;52.986;17.490;2024-01-10T15:55:58;175.90;;;46.70;;
77026;SDS011;65956;52.986;17.490;2024-01-10T15:58:24;62.40;;;23.90;;
77026;SDS011;65956;52.986;17.490;2024-01-10T16:00:51;66.40;;;23.00;;
77026;SDS011;65956;52.986;17.490;2024-01-10T16:03:17;80.60;;;28.50;;
77026;SDS011;65956;52.986;17.490;2024-01-10T16:05:44;236.00;;;61.00;;
77026;SDS011;65956;52.986;17.490;2024-01-10T16:08:10;313.80;;;82.10;;
77026;SDS011;65956;52.986;17.490;2024-01-10T16:10:36;229.00;;;58.80;;
77026;SDS011;65956;52.986;17.490;2024-01-10T16:13:02;122.20;;;35.80;;
77026;SDS011;65956;52.986;17.490;2024-01-10T16:15:29;128.90;;;33.90;;
77026;SDS011;65956;52.986;17.490;2024-01-10T16:17:55;149.70;;;45.00;;
77026;SDS011;65956;52.986;17.490;2024-01-10T16:20:22;127.30;;;37.50;;
77026;SDS011;65956;52.986;17.490;2024-01-10T16:22:48;162.00;;;49.30;;
77026;SDS011;65956;52.986;17.490;2024-01-10T16:25:14;93.30;;;31.70;;
77026;SDS011;65956;52.986;17.490;2024-01-10T16:27:40;186.30;;;61.60;;
77026;SDS011;65956;52.986;17.490;2024-01-10T16:30:06;55.90;;;22.40;;
77026;SDS011;65956;52.986;17.490;2024-01-10T16:32:33;57.90;;;23.70;;
77026;SDS011;65956;52.986;17.490;2024-01-10T16:34:59;43.40;;;18.60;;
77026;SDS011;65956;52.986;17.490;2024-01-10T16:37:26;47.30;;;21.70;;
77026;SDS011;65956;52.986;17.490;2024-01-10T16:39:52;84.90;;;31.10;;
77026;SDS011;65956;52.986;17.490;2024-01-10T16:42:18;58.70;;;24.20;;
77026;SDS011;65956;52.986;17.490;2024-01-10T16:44:45;65.30;;;23.20;;
77026;SDS011;65956;52.986;17.490;2024-01-10T16:47:11;43.20;;;18.30;;
77026;SDS011;65956;52.986;17.490;2024-01-10T16:49:37;63.50;;;23.10;;
77026;SDS011;65956;52.986;17.490;2024-01-10T16:52:05;36.90;;;12.60;;
77026;SDS011;65956;52.986;17.490;2024-01-10T16:54:32;61.10;;;25.40;;
77026;SDS011;65956;52.986;17.490;2024-01-10T16:56:58;82.80;;;33.60;;
77026;SDS011;65956;52.986;17.490;2024-01-10T16:59:24;55.30;;;22.90;;
77026;SDS011;65956;52.986;17.490;2024-01-10T17:01:51;86.10;;;29.50;;
77026;SDS011;65956;52.986;17.490;2024-01-10T17:04:17;92.10;;;36.60;;
77026;SDS011;65956;52.986;17.490;2024-01-10T17:06:44;133.30;;;45.40;;
77026;SDS011;65956;52.986;17.490;2024-01-10T17:09:10;87.70;;;27.10;;
77026;SDS011;65956;52.986;17.490;2024-01-10T17:11:38;101.50;;;32.70;;
77026;SDS011;65956;52.986;17.490;2024-01-10T17:14:06;137.20;;;36.70;;
77026;SDS011;65956;52.986;17.490;2024-01-10T17:16:32;74.30;;;23.30;;
77026;SDS011;65956;52.986;17.490;2024-01-10T17:18:58;88.80;;;26.30;;
77026;SDS011;65956;52.986;17.490;2024-01-10T17:21:24;93.40;;;29.30;;
77026;SDS011;65956;52.986;17.490;2024-01-10T17:23:51;101.90;;;28.20;;
77026;SDS011;65956;52.986;17.490;2024-01-10T17:26:18;109.40;;;30.50;;
77026;SDS011;65956;52.986;17.490;2024-01-10T17:28:44;82.70;;;23.90;;
77026;SDS011;65956;52.986;17.490;2024-01-10T17:31:10;120.80;;;31.20;;
77026;SDS011;65956;52.986;17.490;2024-01-10T17:33:36;104.80;;;27.40;;
77026;SDS011;65956;52.986;17.490;2024-01-10T17:36:03;85.90;;;26.40;;